createdAt,value
2023-03-22T00:00:02.388Z,45.00
2023-03-22T00:05:09.667Z,40.50
2023-03-22T00:10:15.009Z,27.00
2023-03-22T00:15:22.499Z,40.33
2023-03-22T00:20:31.598Z,23.00
2023-03-22T00:25:36.815Z,42.00
2023-03-22T00:30:42.466Z,30.00
2023-03-22T00:40:56.889Z,31.33
2023-03-22T00:46:04.420Z,41.00
2023-03-22T00:51:11.842Z,37.67
2023-03-22T00:56:18.453Z,25.00
2023-03-22T01:01:38.954Z,30.33
2023-03-22T01:06:44.435Z,18.00
2023-03-22T01:11:49.999Z,27.00
2023-03-22T01:17:00.034Z,12.00
2023-03-22T01:22:06.765Z,30.25
2023-03-22T01:27:13.199Z,19.67
2023-03-22T01:32:18.503Z,31.00
2023-03-22T01:37:29.121Z,22.67
2023-03-22T01:42:34.489Z,13.33
2023-03-22T01:47:54.227Z,28.67
2023-03-22T01:58:10.333Z,36.33
2023-03-22T02:03:49.394Z,29.25
2023-03-22T02:08:59.154Z,19.75
2023-03-22T02:14:34.284Z,26.25
2023-03-22T02:20:17.681Z,17.00
2023-03-22T02:25:30.433Z,19.50
2023-03-22T02:30:57.360Z,31.25
2023-03-22T02:36:40.473Z,38.67
2023-03-22T02:42:03.955Z,18.33
2023-03-22T02:47:29.852Z,40.00
2023-03-22T02:52:57.557Z,13.25
2023-03-22T02:58:10.094Z,23.75
2023-03-22T03:03:22.355Z,16.00
2023-03-22T03:08:29.648Z,28.25
2023-03-22T03:13:37.596Z,17.67
2023-03-22T03:19:09.000Z,24.25
2023-03-22T03:24:29.360Z,33.25
2023-03-22T03:29:47.057Z,26.50
2023-03-22T03:35:08.828Z,22.25
2023-03-22T03:40:19.824Z,18.00
2023-03-22T03:45:27.594Z,26.50
2023-03-22T03:50:34.636Z,29.00
2023-03-22T03:55:40.920Z,21.67
2023-03-22T04:00:47.827Z,27.67
2023-03-22T04:06:02.382Z,38.50
2023-03-22T04:11:12.026Z,18.00
2023-03-22T04:16:18.891Z,25.33
2023-03-22T04:21:24.154Z,28.00
2023-03-22T04:26:36.558Z,17.50
2023-03-22T04:31:59.462Z,17.67
2023-03-22T04:37:15.509Z,40.50
2023-03-22T04:42:31.859Z,23.00
2023-03-22T04:47:48.080Z,21.00
2023-03-22T04:52:53.490Z,21.33
2023-03-22T04:57:59.292Z,22.25
2023-03-22T05:03:05.810Z,25.00
2023-03-22T05:08:18.346Z,32.75
2023-03-22T05:13:31.104Z,19.50
2023-03-22T05:18:39.201Z,18.00
2023-03-22T05:23:45.935Z,24.00
2023-03-22T05:28:52.894Z,25.25
2023-03-22T05:34:06.122Z,31.25
2023-03-22T05:39:13.805Z,18.67
2023-03-22T05:44:19.783Z,28.67
2023-03-22T05:49:48.126Z,30.00
2023-03-22T05:59:59.673Z,29.00
2023-03-22T06:05:19.771Z,31.00
2023-03-22T06:15:34.218Z,20.67
2023-03-22T06:20:45.588Z,9.00
2023-03-22T06:25:55.921Z,28.67
2023-03-22T06:31:12.461Z,23.67
2023-03-22T06:36:24.804Z,13.25
2023-03-22T06:46:49.239Z,21.75
2023-03-22T06:52:20.757Z,30.00
2023-03-22T06:57:27.627Z,13.75
2023-03-22T07:02:33.446Z,15.50
2023-03-22T07:08:04.760Z,15.00
2023-03-22T07:13:13.290Z,14.75
2023-03-22T07:18:18.920Z,5.33
2023-03-22T07:23:25.293Z,15.67
2023-03-22T07:28:36.892Z,24.25
2023-03-22T07:33:43.033Z,22.67
2023-03-22T07:38:49.250Z,15.00
2023-03-22T07:44:15.214Z,21.33
2023-03-22T07:49:42.779Z,23.67
2023-03-22T07:54:54.480Z,16.75
2023-03-22T08:05:20.073Z,24.50
2023-03-22T08:10:35.304Z,12.00
2023-03-22T08:15:42.207Z,18.33
2023-03-22T08:20:48.747Z,12.00
2023-03-22T08:25:58.904Z,15.50
2023-03-22T08:31:04.386Z,21.00
2023-03-22T08:36:12.247Z,12.50
2023-03-22T08:41:24.892Z,14.00
2023-03-22T08:46:31.283Z,52.50
2023-03-22T08:57:10.760Z,48.33
2023-03-22T09:02:52.402Z,35.25
2023-03-22T09:08:05.863Z,22.67
2023-03-22T09:13:23.266Z,24.50
2023-03-22T09:18:37.413Z,15.00
2023-03-22T09:23:49.193Z,14.67
2023-03-22T09:28:57.263Z,41.75
2023-03-22T09:34:04.075Z,24.67
2023-03-22T09:39:11.504Z,28.50
2023-03-22T09:44:43.144Z,22.33
2023-03-22T09:50:05.205Z,18.00
2023-03-22T09:55:24.116Z,13.67
2023-03-22T10:00:52.945Z,12.50
2023-03-22T10:06:25.775Z,16.00
2023-03-22T10:11:38.259Z,17.25
2023-03-22T10:16:46.482Z,12.25
2023-03-22T10:21:55.478Z,19.75
2023-03-22T10:27:02.288Z,18.00
2023-03-22T10:32:19.555Z,12.50
2023-03-22T10:37:34.502Z,26.00
2023-03-22T10:42:41.287Z,23.25
2023-03-22T10:47:59.449Z,14.33
2023-03-22T10:53:26.863Z,11.33
2023-03-22T11:03:53.237Z,24.33
2023-03-22T11:09:15.836Z,15.50
2023-03-22T11:14:38.233Z,10.50
2023-03-22T11:19:57.284Z,12.00
2023-03-22T11:25:05.104Z,20.00
2023-03-22T11:30:30.716Z,24.00
2023-03-22T11:35:40.397Z,18.00
2023-03-22T11:40:55.753Z,8.67
2023-03-22T11:46:04.485Z,16.75
2023-03-22T11:51:19.996Z,14.67
2023-03-22T11:56:32.905Z,14.33
2023-03-22T12:01:45.984Z,10.00
2023-03-22T12:06:56.794Z,3.33
2023-03-22T12:12:06.125Z,13.25
2023-03-22T12:17:38.704Z,12.25
2023-03-22T12:22:59.638Z,6.67
2023-03-22T12:28:13.385Z,0.50
2023-03-22T12:33:21.342Z,2.00
2023-03-22T12:38:41.912Z,4.00
2023-03-22T12:44:02.052Z,0.00
2023-03-22T12:49:40.005Z,0.00
2023-03-22T12:54:46.401Z,0.00
2023-03-22T12:59:55.179Z,0.00
2023-03-22T13:10:31.663Z,5.50
2023-03-22T13:15:42.516Z,11.00
2023-03-22T13:21:17.682Z,2.00
2023-03-22T13:26:29.702Z,6.00
2023-03-22T13:32:02.527Z,5.33
2023-03-22T13:37:26.681Z,4.00
2023-03-22T13:42:45.041Z,0.50
2023-03-22T13:48:15.303Z,0.67
2023-03-22T13:53:37.982Z,4.00
2023-03-22T13:58:54.324Z,6.00
2023-03-22T14:04:09.108Z,7.33
2023-03-22T14:09:28.173Z,0.00
2023-03-22T14:14:45.311Z,2.00
2023-03-22T14:19:53.785Z,2.00
